Time;durP1;ratioP1;P1;durP2;ratioP2;P2;SDS_P1;SDS_P2;PMS_P1;PMS_P2;Temp;Humidity;BMP_temperature;BMP_pressure;BME280_temperature;BME280_humidity;BME280_pressure;Samples;Min_cycle;Max_cycle;Signal;HPM_P1;HPM_P2
2022/05/31 00:01:58;;;;;;;6.32;5.32;;;;;;;8.52;100.00;101323.53;5053871;28;20040;-61
2022/05/31 00:04:23;;;;;;;6.65;4.95;;;;;;;8.49;100.00;101316.59;5052705;28;20052;-62
2022/05/31 00:06:49;;;;;;;5.88;5.32;;;;;;;8.12;100.00;101250.69;5054220;28;20086;-61
2022/05/31 00:09:14;;;;;;;8.02;5.35;;;;;;;8.15;100.00;101255.00;5052932;28;20040;-60
2022/05/31 00:11:43;;;;;;;10.52;5.70;;;;;;;8.52;100.00;101318.28;5053974;28;20525;-61
2022/05/31 00:14:10;;;;;;;7.63;5.25;;;;;;;8.48;100.00;101310.47;5052817;28;20048;-63
2022/05/31 00:16:36;;;;;;;7.35;4.95;;;;;;;8.47;100.00;101319.22;5052653;28;20041;-61
2022/05/31 00:19:01;;;;;;;7.15;5.65;;;;;;;8.30;100.00;101281.03;5053869;28;20045;-61
2022/05/31 00:21:38;;;;;;;11.38;6.03;;;;;;;8.09;100.00;101244.59;5052658;28;20059;-61
2022/05/31 00:24:05;;;;;;;7.45;5.32;;;;;;;8.43;100.00;101307.03;5052536;28;20438;-61
2022/05/31 00:26:30;;;;;;;8.35;5.75;;;;;;;8.37;100.00;101304.53;5054119;28;20033;-61
2022/05/31 00:28:55;;;;;;;7.20;5.28;;;;;;;8.32;100.00;101293.22;5052351;28;20040;-62
2022/05/31 00:31:21;;;;;;;9.23;6.25;;;;;;;8.38;100.00;101305.38;5053554;28;20454;-62
2022/05/31 00:33:46;;;;;;;8.63;5.70;;;;;;;8.40;100.00;101304.47;5053898;28;20065;-63
2022/05/31 00:36:11;;;;;;;10.45;6.78;;;;;;;8.40;100.00;101312.34;5053676;28;20451;-61
2022/05/31 00:38:37;;;;;;;9.75;5.30;;;;;;;8.38;100.00;101311.47;5053408;28;20041;-62
2022/05/31 00:41:26;;;;;;;6.80;5.95;;;;;;;8.37;100.00;101307.16;5053222;28;20086;-61
2022/05/31 00:44:01;;;;;;;10.23;6.22;;;;;;;8.31;100.00;101294.13;5051884;28;20036;-62
2022/05/31 00:46:47;;;;;;;8.82;6.93;;;;;;;8.33;100.00;101301.97;5053320;28;20028;-60
2022/05/31 00:49:19;;;;;;;9.60;7.63;;;;;;;7.94;100.00;101233.47;5051996;28;20029;-61
2022/05/31 00:51:48;;;;;;;8.73;7.00;;;;;;;8.34;100.00;101301.94;5051853;28;20029;-64
2022/05/31 00:54:17;;;;;;;10.30;7.18;;;;;;;7.96;100.00;101235.22;5052182;28;20033;-61
2022/05/31 00:56:44;;;;;;;8.27;7.22;;;;;;;7.96;100.00;101235.22;5053074;28;21402;-61
2022/05/31 00:59:13;;;;;;;9.05;7.50;;;;;;;8.30;100.00;101292.38;5052817;28;20091;-62
2022/05/31 01:01:41;;;;;;;9.43;6.82;;;;;;;8.26;100.00;101284.56;5053096;28;20029;-62
2022/05/31 01:04:07;;;;;;;8.15;6.43;;;;;;;8.20;100.00;101279.41;5051512;28;20029;-61
2022/05/31 01:06:33;;;;;;;11.18;7.07;;;;;;;8.26;100.00;101298.53;5051533;28;20557;-61
2022/05/31 01:08:59;;;;;;;10.95;7.15;;;;;;;8.16;100.00;101277.72;5051692;28;20526;-62
2022/05/31 01:11:28;;;;;;;10.50;7.43;;;;;;;7.86;100.00;101224.88;5035064;28;20071;-63
2022/05/31 01:13:54;;;;;;;7.72;6.97;;;;;;;7.87;100.00;101231.00;5051417;28;20056;-62
2022/05/31 01:16:19;;;;;;;8.15;7.43;;;;;;;7.90;100.00;101236.19;5052054;28;20392;-61
2022/05/31 01:18:45;;;;;;;11.68;7.65;;;;;;;7.87;100.00;101231.84;5052585;28;20048;-61
2022/05/31 01:21:10;;;;;;;10.13;7.00;;;;;;;7.86;100.00;101234.50;5052624;28;20037;-62
2022/05/31 01:23:45;;;;;;;11.15;8.18;;;;;;;8.17;100.00;101297.81;5052545;28;20553;-63
2022/05/31 01:26:50;;;;;;;10.90;7.80;;;;;;;8.21;100.00;101289.00;5051625;28;20028;-63
2022/05/31 01:29:18;;;;;;;9.15;7.50;;;;;;;8.18;100.00;101287.28;5051241;28;20396;-60
2022/05/31 01:31:51;;;;;;;11.25;8.18;;;;;;;8.18;100.00;101284.69;5052430;28;20071;-64
2022/05/31 01:34:43;;;;;;;10.52;7.55;;;;;;;7.83;100.00;101232.78;5051255;28;20040;-64
2022/05/31 01:37:09;;;;;;;11.82;8.05;;;;;;;8.04;100.00;101275.28;5034457;28;20025;-64
2022/05/31 01:39:47;;;;;;;17.52;8.68;;;;;;;8.10;100.00;101301.41;5051227;28;20117;-62
2022/05/31 01:42:31;;;;;;;11.85;8.63;;;;;;;8.08;100.00;101290.97;5051736;28;20055;-61
2022/05/31 01:45:10;;;;;;;11.00;8.52;;;;;;;7.70;100.00;101223.38;5052223;28;20086;-62
2022/05/31 01:47:36;;;;;;;9.40;8.40;;;;;;;8.00;100.00;101284.94;5052294;28;20037;-63
2022/05/31 01:50:04;;;;;;;14.30;9.30;;;;;;;7.62;100.00;101212.13;5051174;28;20131;-62
2022/05/31 01:52:30;;;;;;;13.30;9.32;;;;;;;7.97;100.00;101271.03;5051300;28;20037;-61
2022/05/31 01:54:55;;;;;;;11.63;8.75;;;;;;;7.96;100.00;101275.41;5034365;28;20399;-61
2022/05/31 01:57:23;;;;;;;10.23;9.13;;;;;;;7.92;100.00;101271.97;5052284;28;20025;-63
2022/05/31 01:59:56;;;;;;;12.57;9.57;;;;;;;7.83;100.00;101256.38;5051639;28;20519;-59
2022/05/31 02:02:22;;;;;;;11.85;9.73;;;;;;;7.46;100.00;101199.28;5050752;28;20472;-61
2022/05/31 02:04:48;;;;;;;14.23;9.48;;;;;;;7.81;100.00;101267.75;5051757;28;20319;-63
2022/05/31 02:07:15;;;;;;;11.30;10.00;;;;;;;7.86;100.00;101281.66;5052121;28;20122;-63
2022/05/31 02:09:41;;;;;;;11.30;9.60;;;;;;;7.84;100.00;101278.22;5052213;28;20029;-61
2022/05/31 02:12:09;;;;;;;14.45;10.07;;;;;;;7.81;100.00;101279.13;5050966;28;20037;-65
2022/05/31 02:14:34;;;;;;;14.20;10.43;;;;;;;7.73;100.00;101262.66;5050841;28;20025;-62
2022/05/31 02:17:00;;;;;;;13.95;10.50;;;;;;;7.53;100.00;101227.97;5052061;28;20369;-65
2022/05/31 02:19:26;;;;;;;18.27;10.35;;;;;;;7.45;100.00;101216.75;5051875;28;20110;-61
2022/05/31 02:21:54;;;;;;;12.75;9.77;;;;;;;7.38;100.00;101198.53;5052100;28;20521;-64
2022/05/31 02:24:21;;;;;;;11.38;9.40;;;;;;;7.40;100.00;101197.59;5050836;28;20044;-60
2022/05/31 02:26:46;;;;;;;10.32;9.32;;;;;;;7.75;100.00;101268.72;5050614;28;20025;-60
2022/05/31 02:29:14;;;;;;;10.35;9.30;;;;;;;7.67;100.00;101256.63;5051982;28;20055;-62
2022/05/31 02:31:40;;;;;;;10.85;9.85;;;;;;;7.44;100.00;101220.25;5051872;28;20044;-61
2022/05/31 02:34:05;;;;;;;14.93;10.13;;;;;;;7.70;100.00;101260.06;5051781;28;20472;-61
2022/05/31 02:36:31;;;;;;;12.30;10.23;;;;;;;7.68;100.00;101256.56;5050827;28;20116;-60
2022/05/31 02:38:56;;;;;;;12.80;10.30;;;;;;;7.67;100.00;101261.84;5051687;28;20178;-62
2022/05/31 02:41:22;;;;;;;13.40;10.80;;;;;;;7.72;100.00;101255.66;5050482;28;20094;-65
2022/05/31 02:43:48;;;;;;;12.80;10.38;;;;;;;7.72;100.00;101263.53;5051697;28;20056;-61
2022/05/31 02:46:14;;;;;;;10.88;9.77;;;;;;;7.38;100.00;101204.63;5051807;28;20037;-63
2022/05/31 02:48:40;;;;;;;12.88;10.63;;;;;;;7.71;100.00;101259.16;5050419;28;20036;-60
2022/05/31 02:51:05;;;;;;;12.65;10.57;;;;;;;7.33;100.00;101194.19;5051619;28;20033;-60
2022/05/31 02:53:30;;;;;;;12.38;11.07;;;;;;;7.62;100.00;101243.56;5051689;28;20067;-67
2022/05/31 02:55:57;;;;;;;13.88;10.40;;;;;;;7.59;100.00;101237.53;5051743;28;20032;-61
2022/05/31 02:58:24;;;;;;;15.63;11.13;;;;;;;7.28;100.00;101188.16;5050129;28;20053;-61
2022/05/31 03:00:49;;;;;;;12.93;11.27;;;;;;;7.59;100.00;101251.47;5051671;28;20037;-64
2022/05/31 03:03:14;;;;;;;13.63;10.77;;;;;;;7.55;100.00;101244.56;5051564;28;20037;-61
2022/05/31 03:05:40;;;;;;;15.35;10.32;;;;;;;7.61;100.00;101261.94;5053253;28;20041;-60
2022/05/31 03:08:05;;;;;;;14.30;10.90;;;;;;;7.22;100.00;101192.63;5054987;28;20396;-65
2022/05/31 03:10:34;;;;;;;13.13;10.75;;;;;;;7.48;100.00;101242.88;5054119;28;20087;-65
2022/05/31 03:13:00;;;;;;;12.68;11.38;;;;;;;7.53;100.00;101245.47;5055148;28;20036;-63
2022/05/31 03:15:29;;;;;;;11.70;10.50;;;;;;;7.49;100.00;101246.38;5054948;28;20041;-61
2022/05/31 03:18:03;;;;;;;11.10;9.82;;;;;;;7.13;100.00;101188.38;5053332;28;20037;-61
2022/05/31 03:20:49;;;;;;;14.75;11.50;;;;;;;7.55;100.00;101256.78;5054998;28;20033;-62
2022/05/31 03:23:27;;;;;;;12.77;11.23;;;;;;;7.55;100.00;101254.16;5053506;28;20396;-60
2022/05/31 03:25:53;;;;;;;13.30;10.48;;;;;;;7.53;100.00;101246.31;5054782;28;20045;-60
2022/05/31 03:28:19;;;;;;;14.65;11.23;;;;;;;7.59;100.00;101248.84;5037101;28;20083;-61
2022/05/31 03:30:44;;;;;;;16.00;12.13;;;;;;;7.63;100.00;101249.69;5053762;28;20436;-63
2022/05/31 03:33:10;;;;;;;12.85;11.55;;;;;;;7.26;100.00;101194.31;5054898;28;20489;-62
2022/05/31 03:35:36;;;;;;;12.25;11.02;;;;;;;7.64;100.00;101243.56;5053563;28;20120;-61
2022/05/31 03:38:02;;;;;;;12.07;10.88;;;;;;;7.65;100.00;101256.63;5054601;28;20400;-62
2022/05/31 03:43:11;;;;;;;13.63;10.77;;;;;;;7.67;100.00;101247.00;5053745;28;20549;-61
2022/05/31 03:45:39;;;;;;;13.93;10.65;;;;;;;7.60;100.00;101236.63;5070008;28;20033;-60
2022/05/31 03:48:05;;;;;;;12.93;10.93;;;;;;;7.68;100.00;101253.97;5054597;28;20040;-62
2022/05/31 03:50:30;;;;;;;14.38;11.38;;;;;;;7.34;100.00;101176.75;5054351;28;20033;-61
2022/05/31 03:52:55;;;;;;;13.55;10.73;;;;;;;7.70;100.00;101233.00;5054320;28;20029;-61
2022/05/31 03:55:21;;;;;;;11.93;10.60;;;;;;;7.57;100.00;101218.31;5054212;28;20411;-65
2022/05/31 03:57:47;;;;;;;14.93;11.88;;;;;;;7.72;100.00;101231.22;5054124;28;20064;-62
2022/05/31 04:00:14;;;;;;;15.05;12.02;;;;;;;7.80;100.00;101245.06;5053256;28;20032;-60
2022/05/31 04:02:39;;;;;;;13.07;11.50;;;;;;;7.86;100.00;101243.22;5054191;28;20104;-66
2022/05/31 04:05:05;;;;;;;13.88;11.70;;;;;;;7.90;100.00;101251.91;5054039;28;20118;-61
2022/05/31 04:07:31;;;;;;;13.40;12.00;;;;;;;7.94;100.00;101245.72;5054017;28;20132;-60
2022/05/31 04:15:44;;;;;;;12.45;11.15;;;;;;;8.04;100.00;101228.97;5034856;28;20028;-62
2022/05/31 04:18:10;;;;;;;15.27;12.35;;;;;;;7.80;100.00;101180.41;5052951;28;20094;-60
2022/05/31 04:20:41;;;;;;;13.48;12.00;;;;;;;8.14;100.00;101242.81;5052653;28;20478;-61
2022/05/31 04:26:07;;;;;;;13.38;11.85;;;;;;;8.25;100.00;101230.38;5051251;28;20099;-61
2022/05/31 04:28:33;;;;;;;13.10;11.80;;;;;;;8.28;100.00;101230.38;5050581;28;20049;-62
2022/05/31 04:30:58;;;;;;;14.23;11.95;;;;;;;8.35;100.00;101240.72;5050944;28;20167;-63
2022/05/31 04:33:24;;;;;;;13.48;11.55;;;;;;;7.96;100.00;101157.47;5050961;28;20049;-62
2022/05/31 04:36:00;;;;;;;12.85;11.52;;;;;;;8.39;100.00;101229.28;5049386;28;20373;-61
2022/05/31 04:38:26;;;;;;;13.85;12.25;;;;;;;8.35;100.00;101226.72;5048749;28;20506;-61
2022/05/31 04:40:51;;;;;;;13.15;11.75;;;;;;;8.35;100.00;101216.22;5048830;28;20128;-61
2022/05/31 04:43:16;;;;;;;13.65;11.35;;;;;;;8.44;100.00;101234.44;5048739;28;20053;-61
2022/05/31 04:45:42;;;;;;;12.18;10.90;;;;;;;8.07;100.00;101162.50;5048697;28;20496;-64
2022/05/31 04:48:07;;;;;;;14.85;11.82;;;;;;;8.45;100.00;101225.69;5048989;28;20033;-63
2022/05/31 04:50:34;;;;;;;13.68;12.27;;;;;;;8.47;100.00;101226.50;5050118;28;20110;-61
2022/05/31 04:52:59;;;;;;;13.02;11.73;;;;;;;8.14;100.00;101161.53;5050846;28;20044;-61
2022/05/31 04:55:25;;;;;;;13.38;11.95;;;;;;;8.54;100.00;101222.91;5050309;28;20389;-63
2022/05/31 04:57:50;;;;;;;14.20;12.50;;;;;;;8.54;100.00;101217.66;5051432;28;20040;-62
2022/05/31 05:00:16;;;;;;;17.55;13.00;;;;;;;8.26;100.00;101162.16;5051916;28;20127;-61
2022/05/31 05:02:42;;;;;;;14.88;13.18;;;;;;;8.71;100.00;101225.22;5052973;28;20105;-61
2022/05/31 05:05:08;;;;;;;16.10;13.68;;;;;;;8.54;100.00;101185.31;5052768;28;20037;-61
2022/05/31 05:07:33;;;;;;;14.02;12.55;;;;;;;8.83;100.00;101214.50;5052975;28;20025;-61
2022/05/31 05:09:58;;;;;;;15.30;12.90;;;;;;;8.93;100.00;101218.69;5052890;28;20055;-64
2022/05/31 05:12:24;;;;;;;16.13;12.02;;;;;;;9.01;100.00;101212.38;5053028;28;20476;-65
2022/05/31 05:14:49;;;;;;;13.77;11.70;;;;;;;9.11;100.00;101223.53;5052952;28;20032;-61
2022/05/31 05:17:14;;;;;;;14.30;11.02;;;;;;;9.20;100.00;101211.97;5052604;28;20128;-65
2022/05/31 05:19:40;;;;;;;13.25;11.73;;;;;;;9.29;100.00;101210.03;5052644;28;20068;-61
2022/05/31 05:22:05;;;;;;;14.35;11.00;;;;;;;9.30;100.00;101201.25;5051607;28;20480;-61
2022/05/31 05:24:30;;;;;;;13.98;11.05;;;;;;;9.42;100.00;101208.88;5052640;28;20033;-61
2022/05/31 05:26:55;;;;;;;11.32;10.10;;;;;;;9.17;100.00;101149.88;5052440;28;20033;-62
2022/05/31 05:32:09;;;;;;;11.20;10.10;;;;;;;9.68;100.00;101210.94;5052462;28;20044;-61
2022/05/31 05:34:34;;;;;;;12.05;10.43;;;;;;;9.37;100.00;101154.72;5052550;28;20086;-62
2022/05/31 05:36:59;;;;;;;11.00;9.90;;;;;;;9.85;100.00;101219.28;5052380;28;20025;-62
2022/05/31 05:39:25;;;;;;;11.95;10.38;;;;;;;9.94;100.00;101208.56;5052443;28;20110;-61
2022/05/31 05:41:50;;;;;;;10.90;9.80;;;;;;;10.03;100.00;101220.63;5052561;28;20033;-62
2022/05/31 05:44:15;;;;;;;10.25;8.90;;;;;;;10.02;100.00;101203.97;5052273;28;20127;-60
2022/05/31 05:46:41;;;;;;;9.73;8.73;;;;;;;10.21;100.00;101211.44;5050969;28;20061;-61
2022/05/31 05:49:06;;;;;;;10.82;9.43;;;;;;;10.03;100.00;101161.00;5052010;28;20037;-61
2022/05/31 05:51:33;;;;;;;10.57;9.45;;;;;;;10.45;100.00;101210.84;5052183;28;20029;-62
2022/05/31 05:53:58;;;;;;;12.13;9.25;;;;;;;10.35;100.00;101157.56;5050738;28;20025;-61
2022/05/31 05:56:24;;;;;;;12.32;8.95;;;;;;;10.84;100.00;101209.75;5052497;28;20052;-61
2022/05/31 05:58:50;;;;;;;10.15;8.02;;;;;;;11.03;100.00;101213.59;5051948;28;20499;-61
2022/05/31 06:01:31;;;;;;;10.23;8.57;;;;;;;11.23;100.00;101218.31;5051016;28;20041;-61
2022/05/31 06:04:22;;;;;;;9.23;7.97;;;;;;;11.44;100.00;101224.72;5052114;28;20126;-61
2022/05/31 06:06:47;;;;;;;;;;;;;;;11.63;100.00;101210.94;5049977;28;20045;-61
2022/05/31 06:09:16;;;;;;;9.88;7.47;;;;;;;11.75;100.00;101222.91;5068225;28;19920;-64
2022/05/31 06:11:47;;;;;;;10.35;7.93;;;;;;;11.84;100.00;101226.13;5051897;28;20111;-61
2022/05/31 06:14:17;;;;;;;9.85;7.95;;;;;;;11.60;100.00;101189.94;5050758;28;20033;-65
2022/05/31 06:16:45;;;;;;;9.88;8.10;;;;;;;11.87;100.00;101229.59;5051799;28;20060;-61
2022/05/31 06:19:15;;;;;;;10.65;7.80;;;;;;;11.62;100.00;101177.56;5052057;28;20033;-63
2022/05/31 06:21:41;;;;;;;10.93;7.38;;;;;;;11.96;100.00;101231.94;5050706;28;20451;-59
2022/05/31 06:24:06;;;;;;;8.52;7.60;;;;;;;11.95;100.00;101232.84;5050605;28;20033;-63
2022/05/31 06:26:32;;;;;;;9.38;7.22;;;;;;;11.66;100.00;101176.56;5051893;28;20087;-61
2022/05/31 06:28:57;;;;;;;11.45;7.70;;;;;;;12.11;100.00;101244.63;5050627;28;20067;-61
2022/05/31 06:31:22;;;;;;;8.32;7.32;;;;;;;12.16;100.00;101245.34;5051610;28;20033;-63
2022/05/31 06:33:48;;;;;;;10.93;7.72;;;;;;;12.24;100.00;101246.81;5051997;28;20116;-60
2022/05/31 06:36:14;;;;;;;9.80;8.07;;;;;;;12.22;100.00;101251.28;5051755;28;20064;-60
2022/05/31 06:38:40;;;;;;;11.48;7.43;;;;;;;12.28;100.00;101248.47;5051610;28;20036;-61
2022/05/31 06:41:06;;;;;;;8.93;7.90;;;;;;;12.01;100.00;101188.66;5054171;28;20048;-64
2022/05/31 06:43:31;;;;;;;11.02;8.25;;;;;;;12.38;100.00;101252.50;5055837;28;20040;-63
2022/05/31 06:45:57;;;;;;;9.27;7.93;;;;;;;12.18;100.00;101201.28;5054372;28;20384;-62
2022/05/31 06:48:22;;;;;;;10.95;6.68;;;;;;;12.52;100.00;101246.75;5054209;28;20045;-62
2022/05/31 06:50:47;;;;;;;8.40;7.50;;;;;;;12.76;100.00;101243.28;5054334;28;20601;-64
2022/05/31 06:58:44;;;;;;;8.02;7.25;;;;;;;13.47;100.00;101234.53;5054933;28;20110;-59
2022/05/31 07:01:09;;;;;;;7.78;6.97;;;;;;;13.78;100.00;101247.44;5055171;28;20029;-60
2022/05/31 07:03:36;;;;;;;8.80;7.93;;;;;;;13.68;100.00;101193.19;5055267;28;20472;-60
2022/05/31 07:06:02;;;;;;;8.18;7.35;;;;;;;13.94;100.00;101208.88;5054967;28;20472;-58
2022/05/31 07:08:27;;;;;;;7.63;6.93;;;;;;;13.73;100.00;101192.06;5055024;28;20095;-59
2022/05/31 07:10:52;;;;;;;7.85;6.28;;;;;;;13.78;100.00;101203.31;5055177;28;20037;-59
2022/05/31 07:13:18;;;;;;;9.13;6.63;;;;;;;13.77;100.00;101193.69;5055254;28;20071;-59
2022/05/31 07:15:44;;;;;;;9.77;7.05;;;;;;;14.08;100.00;101255.03;5054842;28;20087;-58
2022/05/31 07:18:09;;;;;;;10.45;6.72;;;;;;;13.84;100.00;101248.06;5054933;28;20037;-59
2022/05/31 07:20:34;;;;;;;6.95;6.32;;;;;;;13.60;100.00;101196.09;5055017;28;20519;-58
2022/05/31 07:23:00;;;;;;;10.73;7.10;;;;;;;13.66;100.00;101192.38;5054784;28;20028;-59
2022/05/31 07:25:26;;;;;;;9.80;6.50;;;;;;;13.94;100.00;101206.22;5054804;28;20044;-58
2022/05/31 07:27:51;;;;;;;6.25;5.65;;;;;;;14.49;100.00;101253.38;5054974;28;20508;-59
2022/05/31 07:30:17;;;;;;;7.60;6.82;;;;;;;14.87;100.00;101259.69;5054696;28;20040;-59
2022/05/31 07:32:43;;;;;;;7.60;5.97;;;;;;;15.34;100.00;101257.59;5053608;28;20036;-60
2022/05/31 07:35:08;;;;;;;6.82;5.63;;;;;;;15.49;100.00;101197.69;5054494;28;20091;-59
2022/05/31 07:37:33;;;;;;;6.78;5.38;;;;;;;16.28;100.00;101259.31;5054688;28;20029;-60
2022/05/31 07:39:59;;;;;;;4.95;4.55;;;;;;;16.91;100.00;101272.09;5054440;28;20036;-60
2022/05/31 07:42:24;;;;;;;8.55;4.53;;;;;;;17.47;100.00;101263.78;5054739;28;20120;-60
2022/05/31 07:44:54;;;;;;;7.10;4.43;;;;;;;;;;5054414;28;20112;-60
2022/05/31 07:47:19;;;;;;;6.28;4.13;;;;;;;;;;5054520;28;20033;-60
2022/05/31 07:49:45;;;;;;;5.50;4.07;;;;;;;18.86;nan;101237.13;5054515;28;20071;-59
2022/05/31 07:52:10;;;;;;;3.92;3.00;;;;;;;19.52;nan;101250.84;5053819;28;20083;-59
2022/05/31 07:54:36;;;;;;;4.50;3.50;;;;;;;20.10;nan;101280.91;5052444;28;20033;-59
2022/05/31 07:57:05;;;;;;;3.83;3.20;;;;;;;20.57;nan;101288.50;5053706;28;20095;-59
2022/05/31 07:59:34;;;;;;;6.88;3.65;;;;;;;20.71;nan;101236.75;5051909;28;20476;-59
2022/05/31 08:01:59;;;;;;;5.05;3.50;;;;;;;21.10;nan;101276.00;5053132;28;20106;-60
2022/05/31 08:04:25;;;;;;;8.18;4.82;;;;;;;21.27;nan;101283.72;5052070;28;20028;-61
2022/05/31 08:06:51;;;;;;;7.35;3.67;;;;;;;21.49;nan;101283.06;5053204;28;20064;-60
2022/05/31 08:09:17;;;;;;;5.55;3.78;;;;;;;21.78;nan;101290.72;5053122;28;20069;-61
2022/05/31 08:11:42;;;;;;;8.70;4.18;;;;;;;21.38;nan;101232.94;5053270;28;20428;-61
2022/05/31 08:14:08;;;;;;;6.47;3.83;;;;;;;21.28;nan;101253.28;5053247;28;20036;-61
2022/05/31 08:16:34;;;;;;;4.30;3.40;;;;;;;21.12;nan;101279.44;5053196;28;20037;-60
2022/05/31 08:19:00;;;;;;;10.48;4.75;;;;;;;20.94;nan;101276.16;5052980;28;20041;-60
2022/05/31 08:21:28;;;;;;;5.32;4.05;;;;;;;20.37;nan;101219.47;5051916;28;20045;-61
2022/05/31 08:23:55;;;;;;;4.13;3.50;;;;;;;20.98;nan;101224.16;5052872;28;20037;-60
2022/05/31 08:26:21;;;;;;;4.82;3.40;;;;;;;21.85;nan;101277.75;5052865;28;20052;-60
2022/05/31 08:28:46;;;;;;;6.78;3.40;;;;;;;22.11;nan;101274.06;5051754;28;20496;-60
2022/05/31 08:31:12;;;;;;;6.15;3.70;;;;;;;21.59;nan;101220.69;5052715;28;20381;-60
2022/05/31 08:33:39;;;;;;;3.72;3.15;;;;;;;21.64;nan;101229.25;5051546;28;20068;-60
2022/05/31 08:36:05;;;;;;;4.75;2.70;;;;;;;21.49;nan;101224.13;5052594;28;20051;-60
2022/05/31 08:38:30;;;;;;;3.90;2.40;;;;;;;22.07;nan;101283.28;5052550;28;20112;-62
2022/05/31 08:41:11;;;;;;;4.50;2.10;;;;;;;22.16;nan;101279.94;5052651;28;20044;-59
2022/05/31 08:44:03;;;;;;;4.78;2.42;;;;;;;22.46;nan;101276.81;5051581;28;20036;-60
2022/05/31 08:46:28;;;;;;;4.20;2.30;;;;;;;22.83;nan;101269.53;5040984;28;20049;-60
2022/05/31 08:48:57;;;;;;;4.37;3.10;;;;;;;22.99;nan;101264.72;5052458;28;20043;-61
2022/05/31 08:51:55;;;;;;;3.10;2.65;;;;;;;23.15;nan;101221.41;5052602;28;20263;-61
2022/05/31 08:57:26;;;;;;;3.95;2.92;;;;;;;23.54;nan;101239.78;5051865;28;20075;-60
2022/05/31 09:00:07;;;;;;;8.80;3.37;;;;;;;24.19;nan;101252.41;5052231;28;20056;-62
2022/05/31 09:02:47;;;;;;;6.90;2.97;;;;;;;24.26;nan;101267.03;5050413;28;20325;-60
2022/05/31 09:05:20;;;;;;;7.07;3.10;;;;;;;23.78;nan;101213.59;5051044;28;20503;-60
2022/05/31 09:07:48;;;;;;;5.72;3.17;;;;;;;23.48;nan;101214.25;5034287;28;20041;-60
2022/05/31 09:10:26;;;;;;;4.97;2.58;;;;;;;23.49;nan;101258.09;5050987;28;20029;-60
2022/05/31 09:13:03;;;;;;;3.58;2.67;;;;;;;23.10;nan;101213.72;5052412;28;20037;-60
2022/05/31 09:15:50;;;;;;;4.57;2.50;;;;;;;23.22;nan;101261.09;5050888;28;20120;-60
2022/05/31 09:18:18;;;;;;;6.15;2.78;;;;;;;23.77;nan;101256.72;5051887;28;20115;-60
2022/05/31 09:21:00;;;;;;;4.60;3.10;;;;;;;24.37;nan;101264.34;5052318;28;20033;-60
2022/05/31 09:23:28;;;;;;;4.97;2.42;;;;;;;25.01;nan;101227.47;5050520;28;20458;-60
2022/05/31 09:26:07;;;;;;;5.15;2.15;;;;;;;25.33;nan;101205.78;5050235;28;20115;-60
2022/05/31 09:28:54;;;;;;;4.85;2.65;;;;;;;25.39;nan;101251.91;5051400;28;20029;-62
2022/05/31 09:31:40;;;;;;;7.60;3.70;;;;;;;24.78;nan;101258.16;5050305;28;20041;-60
2022/05/31 09:34:27;;;;;;;2.45;2.22;;;;;;;24.35;nan;101244.75;5050018;28;20045;-60
2022/05/31 09:37:34;;;;;;;4.32;3.10;;;;;;;24.04;nan;101195.31;5049927;28;20414;-60
2022/05/31 09:40:33;;;;;;;4.00;3.00;;;;;;;24.41;nan;101247.81;5049835;28;20041;-60
2022/05/31 09:43:02;;;;;;;5.70;2.55;;;;;;;24.51;nan;101208.38;5050977;28;20037;-59
2022/05/31 09:45:30;;;;;;;2.75;2.03;;;;;;;24.66;nan;101191.91;5050239;28;20063;-60
2022/05/31 09:47:57;;;;;;;4.90;2.65;;;;;;;24.41;nan;101223.59;5050086;28;20075;-61
2022/05/31 09:50:25;;;;;;;4.70;2.58;;;;;;;23.56;nan;101248.56;5050038;28;20033;-61
2022/05/31 09:52:56;;;;;;;4.00;3.03;;;;;;;22.61;nan;101197.00;5033541;28;20057;-61
2022/05/31 09:58:23;;;;;;;4.63;2.75;;;;;;;21.56;nan;101239.66;5050985;28;20051;-62
2022/05/31 10:01:05;;;;;;;4.03;2.40;;;;;;;21.19;nan;101235.22;5050878;28;20075;-60
2022/05/31 10:03:44;;;;;;;5.25;2.47;;;;;;;20.59;nan;101168.91;5049887;28;20029;-60
2022/05/31 10:06:15;;;;;;;4.45;2.42;;;;;;;20.52;nan;101229.09;5051052;28;20033;-60
2022/05/31 10:08:42;;;;;;;3.85;2.38;;;;;;;20.41;nan;101230.78;5051145;28;20044;-59
2022/05/31 10:11:12;;;;;;;3.05;2.33;;;;;;;19.98;nan;101171.28;5049758;28;20051;-60
2022/05/31 10:13:41;;;;;;;7.35;2.72;;;;;;;20.14;nan;101228.94;5050984;28;20037;-59
2022/05/31 10:16:17;;;;;;;4.47;2.00;;;;;;;20.83;nan;101219.84;5055130;28;20499;-60
2022/05/31 10:18:53;;;;;;;3.42;2.55;;;;;;;21.83;nan;101167.16;5055202;28;20037;-60
2022/05/31 10:21:42;;;;;;;7.95;3.20;;;;;;;22.61;nan;101227.38;5055005;28;20412;-59
2022/05/31 10:24:16;;;;;;;6.18;3.20;;;;;;;22.12;nan;101221.31;5052195;28;20041;-59
2022/05/31 10:26:42;;;;;;;4.57;2.90;;;;;;;21.69;nan;101227.09;5054881;28;20025;-60
2022/05/31 10:29:12;;;;;;;3.45;2.28;;;;;;;20.60;nan;101170.63;5054944;28;20358;-60
2022/05/31 10:31:43;;;;;;;4.07;2.22;;;;;;;20.14;nan;101175.50;5054710;28;20602;-60
2022/05/31 10:34:27;;;;;;;4.38;2.38;;;;;;;20.07;nan;101224.13;5054886;28;20435;-60
2022/05/31 10:36:57;;;;;;;3.83;2.28;;;;;;;19.94;nan;101225.84;5054727;28;20047;-60
2022/05/31 10:39:27;;;;;;;4.20;2.30;;;;;;;19.49;nan;101211.84;5054542;28;20499;-60
2022/05/31 10:41:55;;;;;;;3.40;1.92;;;;;;;19.02;nan;101161.44;5054800;28;20029;-60
2022/05/31 10:44:31;;;;;;;4.93;2.22;;;;;;;19.25;nan;101223.16;5054687;28;20388;-59
2022/05/31 10:47:02;;;;;;;2.53;1.98;;;;;;;19.15;nan;101230.88;5054547;28;20041;-60
2022/05/31 10:49:27;;;;;;;4.53;2.10;;;;;;;18.64;nan;101140.72;5053270;28;20025;-61
2022/05/31 10:51:53;;;;;;;4.45;2.25;;;;;;;19.23;nan;101217.94;5054240;28;20594;-59
2022/05/31 10:54:25;;;;;;;2.75;1.95;;;;;;;19.19;nan;101221.75;5054389;28;20094;-59
2022/05/31 10:57:19;;;;;;;4.05;2.15;;;;;;;18.90;nan;101155.97;5054227;28;20033;-59
2022/05/31 11:00:03;;;;;;;3.00;1.30;;;;;;;18.94;nan;101158.34;5052674;28;20128;-59
2022/05/31 11:02:57;;;;;;;2.63;1.35;;;;;;;19.36;nan;101226.03;5054408;28;20040;-60
2022/05/31 11:05:39;;;;;;;1.80;1.40;;;;;;;19.22;nan;101220.69;5052972;28;20029;-59
2022/05/31 11:12:07;;;;;;;4.25;1.77;;;;;;;19.05;nan;101232.41;5050793;28;20047;-60
2022/05/31 11:14:54;;;;;;;2.42;1.58;;;;;;;19.02;nan;101230.78;5054008;28;20048;-60
2022/05/31 11:17:54;;;;;;;4.18;1.52;;;;;;;18.79;nan;101191.31;5054143;28;20029;-60
2022/05/31 11:20:23;;;;;;;3.13;1.70;;;;;;;19.12;nan;101235.56;5045403;28;20047;-60
2022/05/31 11:23:21;;;;;;;3.80;1.77;;;;;;;18.89;nan;101173.78;5052583;28;20025;-61
2022/05/31 11:26:08;;;;;;;2.40;1.63;;;;;;;19.11;nan;101173.34;5053685;28;20040;-60
2022/05/31 11:28:52;;;;;;;2.47;1.65;;;;;;;19.72;nan;101237.09;5036011;28;20036;-61
2022/05/31 11:31:29;;;;;;;3.80;1.48;;;;;;;19.72;nan;101177.47;5053486;28;20483;-60
2022/05/31 11:34:05;;;;;;;3.72;1.70;;;;;;;20.76;nan;101240.81;5052310;28;20511;-60
2022/05/31 11:36:49;;;;;;;2.33;1.50;;;;;;;21.10;nan;101204.56;5053665;28;20369;-59
2022/05/31 11:39:31;;;;;;;2.42;1.67;;;;;;;21.31;nan;101234.31;5052267;28;20029;-60
2022/05/31 11:42:05;;;;;;;1.55;1.20;;;;;;;21.19;nan;101236.03;5053429;28;20505;-60
2022/05/31 11:44:47;;;;;;;2.80;1.33;;;;;;;20.73;nan;101192.00;5053318;28;20544;-60
2022/05/31 11:47:21;;;;;;;3.22;2.30;;;;;;;20.57;nan;101234.16;5052139;28;20448;-60
2022/05/31 11:50:27;;;;;;;3.28;1.80;;;;;;;20.30;nan;101236.00;5053540;28;20534;-61
2022/05/31 11:53:00;;;;;;;4.60;2.30;;;;;;;20.07;nan;101234.81;5052287;28;20036;-61
2022/05/31 11:55:36;;;;;;;4.57;2.10;;;;;;;19.98;nan;101233.59;5053435;28;20045;-61
2022/05/31 11:58:08;;;;;;;4.43;1.77;;;;;;;20.01;nan;101235.19;5051854;28;20082;-61
2022/05/31 12:01:12;;;;;;;3.40;1.83;;;;;;;20.06;nan;101241.97;5051723;28;20404;-60
2022/05/31 12:03:44;;;;;;;4.35;2.28;;;;;;;19.70;nan;101174.91;5044462;28;20103;-60
2022/05/31 12:06:18;;;;;;;2.85;2.28;;;;;;;19.59;nan;101214.78;5051747;28;20039;-60
2022/05/31 12:08:58;;;;;;;2.75;1.75;;;;;;;19.34;nan;101227.94;5051772;28;20039;-60